createdAt,value
2019-01-26T00:00:14.399Z,99.55
2019-01-26T00:00:55.123Z,99.74
2019-01-26T00:01:35.864Z,99.64
2019-01-26T00:02:17.373Z,99.84
2019-01-26T00:02:57.715Z,99.99
2019-01-26T00:03:38.043Z,99.99
2019-01-26T00:04:18.433Z,99.64
2019-01-26T00:04:59.527Z,99.36
2019-01-26T00:05:39.921Z,99.84
2019-01-26T00:06:22.550Z,99.93
2019-01-26T00:07:03.678Z,99.64
2019-01-26T00:07:44.053Z,99.99
2019-01-26T00:08:24.448Z,99.99
2019-01-26T00:09:05.110Z,99.99
2019-01-26T00:09:45.478Z,99.93
2019-01-26T00:10:25.831Z,99.99
2019-01-26T00:11:06.293Z,99.84
2019-01-26T00:11:46.748Z,99.84
2019-01-26T00:12:27.921Z,99.45
2019-01-26T00:13:08.752Z,98.5
2019-01-26T00:13:49.476Z,99.07
2019-01-26T00:14:30.757Z,98.97
2019-01-26T00:15:11.114Z,99.02
2019-01-26T00:15:51.587Z,98.74
2019-01-26T00:16:32.115Z,99.02
2019-01-26T00:17:13.601Z,99.12
2019-01-26T00:17:54.022Z,99.12
2019-01-26T00:18:34.457Z,99.02
2019-01-26T00:19:16.372Z,99.02
2019-01-26T00:19:57.426Z,98.55
2019-01-26T00:20:40.759Z,98.27
2019-01-26T00:21:23.047Z,99.02
2019-01-26T00:22:03.392Z,98.65
2019-01-26T00:22:43.805Z,99.22
2019-01-26T00:23:24.353Z,98.93
2019-01-26T00:24:04.629Z,99.02
2019-01-26T00:24:46.260Z,98.74
2019-01-26T00:25:26.542Z,98.93
2019-01-26T00:26:06.962Z,99.02
2019-01-26T00:26:48.240Z,98.55
2019-01-26T00:27:28.896Z,98.74
2019-01-26T00:28:09.382Z,99.12
2019-01-26T00:28:49.797Z,98.93
2019-01-26T00:29:30.148Z,98.65
2019-01-26T00:30:12.382Z,99.02
2019-01-26T00:30:52.802Z,98.74
2019-01-26T00:31:33.330Z,98.55
2019-01-26T00:32:13.910Z,98.55
2019-01-26T00:32:54.312Z,97.41
2019-01-26T00:33:34.755Z,96.74
2019-01-26T00:34:15.153Z,97.41
2019-01-26T00:34:55.488Z,98.08
2019-01-26T00:35:36.061Z,96.36
2019-01-26T00:36:16.921Z,96.65
2019-01-26T00:36:57.769Z,96.36
2019-01-26T00:37:44.739Z,97.13
2019-01-26T00:38:25.135Z,96.36
2019-01-26T00:39:05.517Z,97.69
2019-01-26T00:39:47.399Z,97.41
2019-01-26T00:40:27.917Z,97.5
2019-01-26T00:41:09.680Z,98.17
2019-01-26T00:41:50.502Z,98.36
2019-01-26T00:42:31.267Z,97.41
2019-01-26T00:43:12.609Z,97.31
2019-01-26T00:43:52.934Z,98.27
2019-01-26T00:44:33.245Z,98.27
2019-01-26T00:45:13.667Z,98.65
2019-01-26T00:45:54.022Z,98.17
2019-01-26T00:46:35.342Z,98.79
2019-01-26T00:47:14.962Z,99.93
2019-01-26T00:47:55.454Z,99.55
2019-01-26T00:48:35.903Z,99.93
2019-01-26T00:49:16.570Z,99.99
2019-01-26T00:49:57.834Z,99.36
2019-01-26T00:50:38.191Z,99.41
2019-01-26T00:51:18.534Z,98.83
2019-01-26T00:51:58.976Z,98.83
2019-01-26T00:52:39.439Z,99.69
2019-01-26T00:53:20.400Z,98.93
2019-01-26T00:54:00.862Z,98.93
2019-01-26T00:54:42.293Z,99.31
2019-01-26T00:55:22.327Z,99.6
2019-01-26T00:56:03.643Z,99.6
2019-01-26T00:56:44.005Z,99.99
2019-01-26T00:57:25.134Z,99.99
2019-01-26T00:58:05.572Z,99.93
2019-01-26T00:58:45.883Z,99.99
2019-01-26T00:59:27.539Z,99.88
2019-01-26T01:00:06.715Z,99.99
2019-01-26T01:00:58.139Z,99.99
2019-01-26T01:01:37.315Z,99.93
2019-01-26T01:02:17.712Z,99.99
2019-01-26T01:02:58.213Z,99.64
2019-01-26T01:03:38.663Z,99.74
2019-01-26T01:04:18.975Z,99.93
2019-01-26T01:04:59.364Z,99.99
2019-01-26T01:08:06.375Z,99.84
2019-01-26T01:09:04.000Z,99.64
2019-01-26T01:10:02.506Z,99.99
2019-01-26T01:10:54.654Z,99.79
2019-01-26T01:11:48.802Z,99.79
2019-01-26T01:12:42.490Z,99.6
2019-01-26T01:13:38.333Z,99.69
2019-01-26T01:14:47.180Z,99.55
2019-01-26T01:15:58.462Z,99.99
2019-01-26T01:16:54.212Z,99.99
2019-01-26T01:17:47.977Z,99.88
2019-01-26T01:18:42.065Z,99.41
2019-01-26T01:19:35.699Z,98.65
2019-01-26T01:20:33.536Z,99.98
2019-01-26T01:23:25.905Z,98.46
2019-01-26T01:24:07.790Z,97.88
2019-01-26T01:24:48.269Z,98.36
2019-01-26T01:25:28.727Z,98.93
2019-01-26T01:26:09.995Z,98.08
2019-01-26T01:26:49.555Z,98.36
2019-01-26T01:27:29.916Z,98.17
2019-01-26T01:28:10.345Z,98.17
2019-01-26T01:28:50.771Z,97.5
2019-01-26T01:29:31.390Z,97.41
2019-01-26T01:30:11.798Z,98.27
2019-01-26T01:30:52.495Z,98.08
2019-01-26T01:31:32.902Z,98.46
2019-01-26T01:32:13.398Z,98.36
2019-01-26T01:32:53.751Z,98.46
2019-01-26T01:33:34.389Z,98.93
2019-01-26T01:34:14.854Z,98.36
2019-01-26T01:34:56.111Z,97.6
2019-01-26T01:35:36.371Z,98.36
2019-01-26T01:36:16.780Z,98.55
2019-01-26T01:36:57.193Z,98.55
2019-01-26T01:37:37.608Z,97.98
2019-01-26T01:40:03.605Z,98.74
2019-01-26T01:40:56.545Z,98.74
2019-01-26T01:41:48.934Z,98.27
2019-01-26T01:42:42.175Z,99.02
2019-01-26T01:43:37.299Z,99.12
2019-01-26T01:44:33.411Z,99.41
2019-01-26T01:45:25.466Z,99.6
2019-01-26T01:46:22.085Z,99.6
2019-01-26T01:47:22.927Z,99.99
2019-01-26T01:48:16.634Z,99.99
2019-01-26T01:49:14.368Z,99.99
2019-01-26T01:50:07.823Z,99.99
2019-01-26T01:51:02.120Z,99.99
2019-01-26T01:51:55.019Z,99.99
2019-01-26T01:52:47.542Z,99.88
2019-01-26T01:53:41.430Z,99.88
2019-01-26T01:54:36.830Z,99.02
2019-01-26T01:55:30.647Z,98.08
2019-01-26T01:56:23.310Z,99.02
2019-01-26T01:57:15.779Z,98.93
2019-01-26T01:58:10.455Z,98.74
2019-01-26T01:59:02.841Z,98.83
2019-01-26T01:59:55.766Z,98.93
2019-01-26T02:00:48.559Z,97.88
2019-01-26T02:06:11.827Z,99.79
2019-01-26T02:06:51.033Z,99.69
2019-01-26T02:07:31.499Z,99.5
2019-01-26T02:08:11.930Z,99.88
2019-01-26T02:08:52.419Z,99.6
2019-01-26T02:09:32.797Z,99.99
2019-01-26T02:10:13.167Z,99.41
2019-01-26T02:10:53.534Z,99.69
2019-01-26T02:11:33.956Z,99.79
2019-01-26T02:12:14.294Z,99.99
2019-01-26T02:12:54.750Z,99.93
2019-01-26T02:13:35.231Z,99.88
2019-01-26T02:14:15.696Z,99.41
2019-01-26T02:14:56.389Z,99.6
2019-01-26T02:15:36.696Z,99.88
2019-01-26T02:16:17.167Z,98.55
2019-01-26T02:16:58.045Z,99.6
2019-01-26T02:17:38.429Z,99.6
2019-01-26T02:18:18.768Z,99.79
2019-01-26T02:18:59.222Z,99.88
2019-01-26T02:19:39.645Z,99.88
2019-01-26T02:20:21.802Z,98.65
2019-01-26T02:21:02.277Z,98.74
2019-01-26T02:21:42.560Z,98.55
2019-01-26T02:22:22.968Z,99.99
2019-01-26T02:23:03.505Z,99.79
2019-01-26T02:23:44.119Z,99.88
2019-01-26T02:24:24.487Z,99.88
2019-01-26T02:25:04.801Z,99.99
2019-01-26T02:25:45.237Z,99.79
2019-01-26T02:26:25.831Z,99.41
2019-01-26T02:28:21.430Z,99.99
2019-01-26T02:29:18.998Z,99.98
2019-01-26T02:30:12.286Z,99.99
2019-01-26T02:31:06.273Z,99.99
2019-01-26T02:32:00.928Z,99.99
2019-01-26T02:32:55.039Z,99.99
2019-01-26T02:33:47.464Z,99.99
2019-01-26T02:34:59.226Z,99.99
2019-01-26T02:35:52.523Z,99.99
2019-01-26T02:36:47.027Z,99.99
2019-01-26T02:37:44.144Z,99.99
2019-01-26T02:39:38.895Z,99.99
2019-01-26T02:40:38.554Z,99.99
2019-01-26T02:41:47.329Z,99.99
2019-01-26T02:44:13.019Z,99.99
2019-01-26T02:44:53.360Z,99.99
2019-01-26T02:45:33.606Z,99.99
2019-01-26T02:46:14.010Z,99.79
2019-01-26T02:46:57.995Z,99.99
2019-01-26T02:47:34.907Z,98.83
2019-01-26T02:48:15.469Z,99.69
2019-01-26T02:48:55.949Z,99.69
2019-01-26T02:49:36.378Z,99.5
2019-01-26T02:50:16.717Z,99.6
2019-01-26T02:50:57.409Z,99.31
2019-01-26T02:51:37.797Z,99.88
2019-01-26T02:52:18.219Z,99.99
2019-01-26T02:52:58.736Z,99.98
2019-01-26T02:53:39.314Z,99.99
2019-01-26T02:54:19.571Z,99.41
2019-01-26T02:55:01.174Z,99.99
2019-01-26T02:55:41.486Z,99.88
2019-01-26T02:56:21.996Z,99.69
2019-01-26T02:57:02.384Z,99.69
2019-01-26T02:57:42.899Z,99.6
2019-01-26T02:58:23.336Z,99.5
2019-01-26T02:59:03.664Z,99.41
2019-01-26T02:59:44.141Z,99.88
2019-01-26T03:00:24.586Z,99.5
2019-01-26T03:01:04.999Z,99.79
2019-01-26T03:01:45.584Z,99.6
2019-01-26T03:02:25.961Z,99.6
2019-01-26T03:03:06.354Z,99.6
2019-01-26T03:03:46.786Z,99.6
2019-01-26T03:04:27.183Z,99.69
2019-01-26T03:05:07.723Z,99.5
2019-01-26T03:05:48.063Z,99.69
2019-01-26T03:06:28.429Z,98.93
2019-01-26T03:07:10.645Z,98.65
2019-01-26T03:07:51.124Z,98.93
2019-01-26T03:08:31.707Z,98.65
2019-01-26T03:09:11.989Z,99.6
2019-01-26T03:09:52.470Z,99.88
2019-01-26T03:10:33.144Z,99.79
2019-01-26T03:11:14.021Z,98.74
2019-01-26T03:11:54.179Z,98.93
2019-01-26T03:12:34.577Z,98.74
2019-01-26T03:13:15.009Z,99.41
2019-01-26T03:13:55.397Z,98.74
2019-01-26T03:14:36.041Z,99.69
2019-01-26T03:15:16.297Z,98.83
2019-01-26T03:15:56.987Z,99.6
2019-01-26T03:16:37.222Z,99.02
2019-01-26T03:17:17.941Z,99.5
2019-01-26T03:17:58.540Z,99.99
2019-01-26T03:18:39.004Z,99.99
2019-01-26T03:19:19.434Z,99.99
2019-01-26T03:19:59.908Z,99.99
2019-01-26T03:20:41.254Z,99.41
2019-01-26T03:21:21.529Z,99.98
2019-01-26T03:22:02.022Z,99.88
2019-01-26T03:22:42.388Z,99.99
2019-01-26T03:23:22.780Z,99.99
2019-01-26T03:24:03.434Z,99.41
2019-01-26T03:24:43.876Z,99.6
2019-01-26T03:25:25.127Z,99.6
2019-01-26T03:26:05.665Z,98.83
2019-01-26T03:26:46.173Z,99.08
2019-01-26T03:30:29.157Z,98.98
2019-01-26T03:31:22.678Z,98.41
2019-01-26T03:32:20.187Z,97.84
2019-01-26T03:33:16.461Z,98.13
2019-01-26T03:34:27.571Z,97.93
2019-01-26T03:35:21.281Z,98.32
2019-01-26T03:36:15.409Z,97.65
2019-01-26T03:37:08.343Z,98.32
2019-01-26T03:39:10.871Z,98.98
2019-01-26T03:40:02.885Z,98.32
2019-01-26T03:40:56.095Z,98.03
2019-01-26T03:41:48.163Z,98.5
2019-01-26T03:42:40.540Z,98.41
2019-01-26T03:43:32.704Z,98.98
2019-01-26T03:44:25.574Z,98.98
2019-01-26T03:45:17.750Z,98.55
2019-01-26T03:46:10.025Z,99.99
2019-01-26T03:47:01.937Z,99.31
2019-01-26T03:47:54.553Z,99.84
2019-01-26T03:48:49.597Z,99.31
2019-01-26T03:49:42.176Z,99.88
2019-01-26T03:50:34.166Z,99.99
2019-01-26T03:51:21.742Z,99.98
2019-01-26T03:52:04.619Z,99.6
2019-01-26T03:52:44.797Z,99.69
2019-01-26T03:53:27.838Z,99.46
2019-01-26T03:54:08.339Z,99.84
2019-01-26T03:54:49.046Z,99.41
2019-01-26T03:55:29.720Z,99.46
2019-01-26T03:56:09.990Z,99.6
2019-01-26T03:56:50.761Z,99.74
2019-01-26T03:57:30.921Z,99.99
2019-01-26T03:58:11.734Z,99.84
2019-01-26T03:58:52.089Z,99.99
2019-01-26T03:59:32.652Z,99.93
2019-01-26T04:00:13.582Z,99.41
2019-01-26T04:00:54.089Z,99.55
2019-01-26T04:01:34.431Z,99.17
2019-01-26T04:02:15.300Z,98.69
2019-01-26T04:02:55.979Z,99.08
2019-01-26T04:03:36.882Z,98.13
2019-01-26T04:04:17.199Z,98.32
2019-01-26T04:04:58.308Z,98.6
2019-01-26T04:05:38.574Z,98.98
2019-01-26T04:06:19.269Z,98.88
2019-01-26T04:06:59.524Z,98.98
2019-01-26T04:07:40.978Z,98.79
2019-01-26T04:08:22.082Z,99.08
2019-01-26T04:09:03.455Z,99.99
2019-01-26T04:09:43.868Z,98.6
2019-01-26T04:10:24.060Z,98.88
2019-01-26T04:11:04.613Z,99.99
2019-01-26T04:11:45.674Z,99.84
2019-01-26T04:12:28.816Z,99.93
2019-01-26T04:13:10.030Z,99.99
2019-01-26T04:13:50.337Z,99.17
2019-01-26T04:14:30.905Z,99.08
2019-01-26T04:15:11.765Z,99.08
2019-01-26T04:15:52.179Z,98.98
2019-01-26T04:16:32.417Z,99.17
2019-01-26T04:17:13.004Z,98.88
2019-01-26T04:17:53.497Z,98.98
2019-01-26T04:18:34.235Z,98.98
2019-01-26T04:19:14.400Z,99.08
2019-01-26T04:19:55.182Z,98.98
2019-01-26T04:20:35.588Z,98.6
2019-01-26T04:21:16.190Z,98.32
2019-01-26T04:21:57.337Z,98.5
2019-01-26T04:22:38.274Z,98.22
2019-01-26T04:23:20.416Z,98.6
2019-01-26T04:24:01.306Z,98.41
2019-01-26T04:24:42.295Z,98.41
2019-01-26T04:25:23.044Z,98.6
2019-01-26T04:26:04.411Z,99.08
2019-01-26T04:26:46.611Z,98.22
2019-01-26T04:27:27.114Z,98.69
2019-01-26T04:28:07.566Z,98.6
2019-01-26T04:28:49.333Z,99.08
2019-01-26T05:06:24.892Z,99.99
2019-01-26T05:07:14.305Z,99.99
2019-01-26T05:08:02.582Z,99.99
2019-01-26T05:08:43.144Z,99.99
2019-01-26T05:09:23.587Z,99.99
2019-01-26T05:10:06.578Z,99.99
2019-01-26T05:10:49.725Z,99.99
2019-01-26T05:11:35.527Z,99.99
2019-01-26T05:12:17.709Z,99.99
2019-01-26T05:14:18.369Z,99.99
2019-01-26T05:15:11.443Z,99.99
2019-01-26T05:16:04.343Z,99.99
2019-01-26T05:16:56.650Z,99.99
2019-01-26T05:17:48.994Z,99.99
2019-01-26T05:18:42.424Z,99.99
2019-01-26T05:19:34.743Z,99.99
2019-01-26T05:20:26.864Z,99.99
2019-01-26T05:21:19.205Z,99.99
2019-01-26T05:22:11.758Z,99.84
2019-01-26T05:23:04.262Z,99.46
2019-01-26T05:23:56.894Z,99.65
2019-01-26T05:24:48.854Z,99.27
2019-01-26T05:25:40.997Z,98.5
2019-01-26T05:26:33.084Z,98.69
2019-01-26T05:27:26.261Z,98.5
2019-01-26T05:28:19.416Z,98.41
2019-01-26T05:29:11.444Z,98.22
2019-01-26T05:30:01.059Z,98.22
2019-01-26T05:30:41.582Z,98.41
2019-01-26T05:31:22.049Z,98.98
2019-01-26T05:32:02.439Z,98.79
2019-01-26T05:32:44.710Z,98.6
2019-01-26T05:33:25.827Z,98.22
2019-01-26T05:34:07.223Z,98.27
2019-01-26T05:34:47.515Z,98.6
2019-01-26T05:35:28.800Z,98.18
2019-01-26T05:36:09.907Z,98.22
2019-01-26T05:36:51.037Z,97.93
2019-01-26T05:37:31.471Z,97.6
2019-01-26T05:38:14.755Z,97.31
2019-01-26T05:38:55.677Z,97.79
2019-01-26T05:39:36.175Z,97.46
2019-01-26T05:40:16.628Z,98.03
2019-01-26T05:40:57.287Z,97.93
2019-01-26T05:41:37.662Z,97.46
2019-01-26T05:42:18.154Z,97.7
2019-01-26T05:42:58.677Z,97.41
2019-01-26T05:43:41.036Z,97.6
2019-01-26T05:44:23.173Z,96.36
2019-01-26T05:45:04.432Z,96.55
2019-01-26T05:45:44.765Z,96.46
2019-01-26T05:46:25.164Z,97.22
2019-01-26T05:47:05.823Z,96.55
2019-01-26T05:47:48.539Z,96.55
2019-01-26T05:48:26.659Z,96.84
2019-01-26T05:49:07.107Z,97.31
2019-01-26T05:49:47.590Z,97.22
2019-01-26T05:50:28.018Z,96.46
2019-01-26T05:51:08.390Z,96.36
2019-01-26T05:51:49.245Z,97.03
2019-01-26T05:52:29.632Z,96.55
2019-01-26T05:53:10.164Z,96.94
2019-01-26T05:53:50.648Z,96.46
2019-01-26T05:54:31.519Z,96.55
2019-01-26T05:55:11.670Z,96.94
2019-01-26T05:55:52.148Z,97.22
2019-01-26T05:56:32.570Z,97.93
2019-01-26T05:57:13.065Z,98.03
2019-01-26T05:57:53.603Z,98.32
2019-01-26T05:58:34.058Z,98.6
2019-01-26T05:59:14.550Z,98.41
2019-01-26T05:59:55.280Z,99.08
2019-01-26T06:00:35.720Z,99.08
2019-01-26T06:01:16.076Z,99.27
2019-01-26T06:01:56.564Z,99.08
2019-01-26T06:02:37.667Z,99.08
2019-01-26T06:03:18.459Z,98.69
2019-01-26T06:03:59.724Z,98.69
2019-01-26T06:04:39.473Z,98.79
2019-01-26T06:05:20.324Z,99.36
2019-01-26T06:06:02.161Z,98.41
2019-01-26T06:06:42.621Z,98.32
2019-01-26T06:07:23.037Z,98.6
2019-01-26T06:08:03.424Z,98.88
2019-01-26T06:08:43.808Z,99.36
2019-01-26T06:09:24.191Z,99.99
2019-01-26T06:10:04.647Z,99.99
2019-01-26T06:10:45.058Z,99.93
2019-01-26T06:11:25.462Z,99.93
2019-01-26T06:12:05.817Z,99.99
2019-01-26T06:12:47.374Z,99.93
2019-01-26T06:13:27.660Z,99.99
2019-01-26T06:14:08.116Z,99.93
2019-01-26T06:14:48.814Z,99.99
2019-01-26T06:15:29.019Z,99.99
2019-01-26T06:16:10.371Z,99.55
2019-01-26T06:16:51.016Z,99.27
2019-01-26T06:17:31.474Z,99.17
2019-01-26T06:18:11.872Z,98.32
2019-01-26T06:18:52.255Z,98.32
2019-01-26T06:19:32.781Z,98.22
2019-01-26T06:20:13.545Z,98.6
2019-01-26T06:20:53.727Z,98.41
2019-01-26T06:21:34.151Z,97.27
2019-01-26T06:22:15.229Z,97.65
2019-01-26T06:22:56.519Z,97.46
2019-01-26T06:23:37.781Z,97.55
2019-01-26T06:24:19.009Z,98.6
2019-01-26T06:24:59.015Z,98.32
2019-01-26T06:25:39.422Z,97.74
2019-01-26T06:26:19.774Z,98.41
2019-01-26T06:27:00.141Z,97.74
2019-01-26T06:27:40.610Z,98.03
2019-01-26T06:28:21.066Z,98.22
2019-01-26T06:29:01.865Z,98.6
2019-01-26T06:29:42.296Z,98.22
2019-01-26T06:30:22.616Z,98.41
2019-01-26T06:31:03.069Z,97.46
2019-01-26T06:31:45.197Z,98.41
2019-01-26T06:32:25.653Z,98.41
2019-01-26T06:33:06.045Z,98.41
2019-01-26T06:33:46.475Z,98.69
2019-01-26T06:34:26.894Z,98.32
2019-01-26T06:35:07.178Z,98.6
2019-01-26T06:35:47.865Z,98.79
2019-01-26T06:36:28.060Z,99.74
2019-01-26T06:37:08.647Z,98.98
2019-01-26T06:37:48.954Z,98.6
2019-01-26T06:38:29.468Z,98.6
2019-01-26T06:39:09.780Z,98.22
2019-01-26T06:39:50.188Z,98.13
2019-01-26T06:40:30.769Z,98.03
2019-01-26T06:41:11.292Z,97.84
2019-01-26T06:41:51.669Z,97.55
2019-01-26T06:42:32.173Z,98.32
2019-01-26T06:43:12.616Z,97.65
2019-01-26T06:43:52.947Z,98.22
2019-01-26T06:44:33.547Z,98.41
2019-01-26T06:45:13.694Z,98.5
2019-01-26T06:45:54.748Z,98.5
2019-01-26T06:46:35.110Z,98.5
2019-01-26T06:47:17.410Z,98.79
2019-01-26T06:48:02.010Z,99.08
2019-01-26T06:48:37.725Z,98.79
2019-01-26T06:49:18.170Z,98.88
2019-01-26T06:49:58.778Z,98.79
2019-01-26T06:50:38.973Z,99.74
2019-01-26T06:51:19.474Z,99.65
2019-01-26T06:51:59.864Z,99.46
2019-01-26T06:52:40.308Z,99.84
2019-01-26T06:53:21.111Z,98.79
2019-01-26T06:54:01.728Z,98.88
2019-01-26T06:54:41.954Z,98.88
2019-01-26T06:55:22.240Z,99.36
2019-01-26T06:56:03.069Z,99.65
2019-01-26T06:56:43.784Z,99.55
2019-01-26T06:57:24.424Z,99.99
2019-01-26T06:58:04.886Z,98.88
2019-01-26T06:58:45.503Z,98.88
2019-01-26T06:59:25.896Z,99.65
2019-01-26T07:00:06.292Z,98.98
2019-01-26T07:00:46.719Z,98.69
2019-01-26T07:01:27.538Z,98.79
2019-01-26T07:02:08.309Z,98.98
2019-01-26T07:02:48.534Z,98.22
2019-01-26T07:03:28.928Z,98.41
2019-01-26T07:04:09.275Z,97.74
2019-01-26T07:04:49.772Z,98.22
2019-01-26T07:05:31.505Z,97.55
2019-01-26T07:06:11.983Z,98.5
2019-01-26T07:06:52.388Z,97.84
2019-01-26T07:07:32.881Z,97.65
2019-01-26T07:08:13.224Z,97.55
2019-01-26T07:08:53.748Z,96.6
2019-01-26T07:09:34.111Z,97.08
2019-01-26T07:10:14.489Z,96.41
2019-01-26T07:10:55.056Z,96.03
2019-01-26T07:11:35.946Z,95.75
2019-01-26T07:12:16.382Z,96.51
2019-01-26T07:12:57.475Z,96.41
2019-01-26T07:13:37.833Z,97.17
2019-01-26T07:14:18.163Z,96.65
2019-01-26T07:14:58.532Z,95.65
2019-01-26T07:15:39.039Z,96.12
2019-01-26T07:16:19.560Z,96.36
2019-01-26T07:17:00.149Z,94.93
2019-01-26T07:17:40.671Z,96.31
2019-01-26T07:18:21.301Z,96.12
2019-01-26T07:19:01.714Z,96.7
2019-01-26T07:19:42.072Z,96.41
2019-01-26T07:20:22.802Z,96.12
2019-01-26T07:21:03.317Z,95.03
2019-01-26T07:21:44.041Z,95.51
2019-01-26T07:22:24.652Z,95.12
2019-01-26T07:23:05.850Z,94.84
2019-01-26T07:23:46.324Z,95.03
2019-01-26T07:24:27.187Z,95.12
2019-01-26T07:25:08.467Z,96.12
2019-01-26T07:25:47.751Z,96.22
2019-01-26T07:26:28.799Z,96.12
2019-01-26T07:27:09.451Z,94.93
2019-01-26T07:27:49.828Z,95.12
2019-01-26T07:28:30.322Z,94.93
2019-01-26T07:29:10.917Z,95.12
2019-01-26T07:29:51.169Z,95.03
2019-01-26T07:30:32.408Z,95.22
2019-01-26T07:31:13.097Z,95.22
2019-01-26T07:31:53.520Z,94.56
2019-01-26T07:32:34.683Z,95.32
2019-01-26T07:33:15.166Z,94.65
2019-01-26T07:33:55.543Z,94.65
2019-01-26T07:34:43.671Z,94.65
2019-01-26T07:35:23.477Z,94.27
2019-01-26T07:36:05.093Z,94.56
2019-01-26T07:36:45.426Z,94.17
2019-01-26T07:37:26.916Z,93.98
2019-01-26T07:38:13.450Z,93.79
2019-01-26T07:38:49.701Z,93.79
2019-01-26T07:39:30.204Z,93.89
2019-01-26T07:40:11.893Z,93.51
2019-01-26T07:40:52.381Z,93.79
2019-01-26T07:41:32.810Z,94.27
2019-01-26T07:42:13.630Z,94.37
2019-01-26T07:42:54.027Z,93.32
2019-01-26T07:43:34.554Z,93.6
2019-01-26T07:44:14.786Z,92.84
2019-01-26T07:44:58.598Z,93.03
2019-01-26T07:45:39.009Z,92.65
2019-01-26T07:46:19.281Z,92.36
2019-01-26T07:47:01.420Z,92.18
2019-01-26T07:47:41.894Z,91.6
2019-01-26T07:48:22.466Z,91.55
2019-01-26T07:49:02.735Z,90.5
2019-01-26T07:49:43.089Z,90.98
2019-01-26T07:50:23.488Z,90.6
2019-01-26T07:51:03.948Z,90.79
2019-01-26T07:51:44.311Z,90.7
2019-01-26T07:52:24.710Z,90.89
2019-01-26T07:53:05.250Z,91.41
2019-01-26T07:53:45.615Z,91.46
2019-01-26T07:54:26.774Z,91.22
2019-01-26T07:55:08.926Z,90.5
2019-01-26T07:55:48.807Z,90.5
2019-01-26T07:56:29.289Z,90.7
2019-01-26T07:57:09.747Z,90.03
2019-01-26T07:57:50.245Z,90.22
2019-01-26T07:58:30.525Z,89.84
2019-01-26T07:59:10.945Z,90.03
2019-01-26T07:59:52.440Z,89.75
2019-01-26T08:00:32.953Z,89.36
2019-01-26T08:01:14.126Z,89.26
2019-01-26T08:01:54.560Z,89.07
2019-01-26T08:02:40.475Z,88.7
2019-01-26T08:03:20.871Z,88.89
2019-01-26T08:04:01.250Z,88.12
2019-01-26T08:04:41.972Z,88.03
2019-01-26T08:05:22.215Z,88.41
2019-01-26T08:06:03.313Z,88.41
2019-01-26T08:06:45.081Z,88.03
2019-01-26T08:07:25.501Z,88.31
2019-01-26T08:08:05.829Z,88.31
2019-01-26T08:08:46.290Z,88.12
2019-01-26T08:09:27.438Z,88.7
2019-01-26T08:10:07.552Z,88.51
2019-01-26T08:10:49.074Z,89.26
2019-01-26T08:11:29.618Z,89.07
2019-01-26T08:12:09.999Z,89.65
2019-01-26T08:12:50.546Z,89.17
2019-01-26T08:13:32.020Z,89.26
2019-01-26T08:14:13.455Z,89.75
2019-01-26T08:14:54.213Z,89.75
2019-01-26T08:15:34.547Z,89.46
2019-01-26T08:16:15.044Z,89.26
2019-01-26T08:16:57.780Z,89.75
2019-01-26T08:17:37.940Z,89.94
2019-01-26T08:18:23.970Z,90.12
2019-01-26T08:18:59.793Z,90.03
2019-01-26T08:19:40.266Z,89.55
2019-01-26T08:20:21.301Z,89.84
2019-01-26T08:21:02.739Z,89.65
2019-01-26T08:21:45.257Z,89.07
2019-01-26T08:22:25.730Z,89.17
2019-01-26T08:23:06.122Z,88.98
2019-01-26T08:23:46.772Z,88.98
2019-01-26T08:24:28.432Z,89.36
2019-01-26T08:25:08.813Z,89.65
2019-01-26T08:25:49.183Z,89.65
2019-01-26T08:26:29.595Z,89.07
2019-01-26T08:27:10.751Z,89.84
2019-01-26T08:27:51.660Z,89.55
2019-01-26T08:28:32.068Z,90.03
2019-01-26T08:29:13.067Z,90.7
2019-01-26T08:29:53.532Z,90.03
2019-01-26T08:30:34.033Z,90.03
2019-01-26T08:31:14.703Z,89.75
2019-01-26T08:31:55.090Z,89.94
2019-01-26T08:32:36.187Z,90.7
2019-01-26T08:33:16.996Z,90.41
2019-01-26T08:33:57.714Z,90.79
2019-01-26T08:34:38.472Z,90.89
2019-01-26T08:35:20.111Z,90.7
2019-01-26T08:36:01.600Z,90.31
2019-01-26T08:36:43.047Z,90.89
2019-01-26T08:37:23.378Z,90.79
2019-01-26T08:38:06.085Z,90.79
2019-01-26T08:38:47.139Z,90.41
2019-01-26T08:39:27.537Z,89.84
2019-01-26T08:40:08.003Z,90.12
2019-01-26T08:40:48.277Z,90.79
2019-01-26T08:41:28.791Z,91.6
2019-01-26T08:42:09.236Z,91.99
2019-01-26T08:42:50.478Z,92.36
2019-01-26T08:43:30.794Z,92.74
2019-01-26T08:44:13.460Z,92.84
2019-01-26T08:44:53.896Z,92.36
2019-01-26T08:45:34.142Z,92.46
2019-01-26T08:46:18.701Z,92.94
2019-01-26T08:46:58.804Z,92.74
2019-01-26T08:47:39.323Z,92.74
2019-01-26T08:48:22.988Z,93.03
2019-01-26T08:49:03.410Z,92.27
2019-01-26T08:49:45.107Z,93.13
2019-01-26T08:50:27.290Z,93.51
2019-01-26T08:51:07.724Z,93.22
2019-01-26T08:51:48.228Z,93.03
2019-01-26T08:52:30.416Z,92.18
2019-01-26T08:53:13.348Z,92.27
2019-01-26T08:53:55.360Z,92.55
2019-01-26T08:54:39.516Z,92.74
2019-01-26T08:55:21.907Z,93.22
2019-01-26T08:56:03.296Z,93.03
2019-01-26T08:56:44.467Z,92.74
2019-01-26T08:57:25.032Z,92.84
2019-01-26T08:58:05.487Z,93.03
2019-01-26T08:58:47.170Z,92.84
2019-01-26T08:59:29.441Z,92.84
2019-01-26T09:00:10.410Z,92.84
2019-01-26T09:00:51.150Z,92.84
2019-01-26T09:01:31.477Z,93.32
2019-01-26T09:02:11.912Z,93.03
2019-01-26T09:02:55.607Z,92.94
2019-01-26T09:03:36.810Z,93.6
2019-01-26T09:04:17.309Z,93.6
2019-01-26T09:04:57.445Z,94.08
2019-01-26T09:05:39.446Z,94.08
2019-01-26T09:06:19.857Z,94.17
2019-01-26T09:07:01.637Z,93.13
2019-01-26T09:07:41.974Z,93.41
2019-01-26T09:08:22.723Z,93.03
2019-01-26T09:09:03.450Z,93.03
2019-01-26T09:09:43.898Z,92.84
2019-01-26T09:10:24.352Z,92.65
2019-01-26T09:11:04.946Z,92.36
2019-01-26T09:11:45.608Z,92.18
2019-01-26T09:12:26.463Z,92.08
2019-01-26T09:13:07.210Z,92.46
2019-01-26T09:13:48.452Z,92.74
2019-01-26T09:14:28.598Z,92.08
2019-01-26T09:15:09.627Z,92.74
2019-01-26T09:15:50.131Z,92.74
2019-01-26T09:16:30.795Z,92.94
2019-01-26T09:17:11.022Z,92.18
2019-01-26T09:17:54.056Z,91.99
2019-01-26T09:18:38.693Z,92.36
2019-01-26T09:19:18.260Z,92.74
2019-01-26T09:19:59.735Z,93.22
2019-01-26T09:20:40.704Z,92.84
2019-01-26T09:21:21.284Z,92.41
2019-01-26T09:22:03.123Z,92.13
2019-01-26T09:22:43.417Z,92.13
2019-01-26T09:23:23.886Z,91.55
2019-01-26T09:24:04.470Z,91.94
2019-01-26T09:24:46.584Z,91.55
2019-01-26T09:25:32.017Z,91.55
2019-01-26T09:26:14.435Z,90.41
2019-01-26T09:26:55.596Z,90.41
2019-01-26T09:27:36.079Z,90.7
2019-01-26T09:28:21.252Z,90.7
2019-01-26T09:29:04.592Z,89.84
2019-01-26T09:29:45.679Z,90.12
2019-01-26T09:30:27.568Z,90.12
2019-01-26T09:31:09.287Z,89.75
2019-01-26T09:31:53.536Z,90.6
2019-01-26T09:32:33.941Z,90.41
2019-01-26T09:33:15.336Z,90.41
2019-01-26T09:33:57.623Z,90.22
2019-01-26T09:34:39.410Z,90.6
2019-01-26T09:35:27.733Z,90.89
2019-01-26T09:36:10.639Z,90.98
2019-01-26T09:36:51.449Z,90.7
2019-01-26T09:37:32.037Z,90.79
2019-01-26T09:38:14.752Z,90.98
2019-01-26T09:38:54.644Z,89.79
2019-01-26T09:39:37.085Z,89.4
2019-01-26T09:40:18.609Z,88.36
2019-01-26T09:41:00.036Z,87.6
2019-01-26T09:41:41.440Z,87.54
2019-01-26T09:42:24.709Z,86.49
2019-01-26T09:43:06.379Z,86.11
2019-01-26T09:43:48.736Z,85.73
2019-01-26T09:44:30.958Z,85.06
2019-01-26T09:45:13.722Z,84.78
2019-01-26T09:45:55.562Z,83.48
2019-01-26T09:46:36.910Z,82.82
2019-01-26T09:47:18.152Z,81.48
2019-01-26T09:48:00.573Z,81.01
2019-01-26T09:48:57.852Z,80.72
2019-01-26T09:49:46.798Z,80.57
2019-01-26T09:50:32.355Z,80.33
2019-01-26T09:51:13.425Z,81.01
2019-01-26T09:51:57.745Z,81.01
2019-01-26T09:52:41.579Z,81.38
2019-01-26T09:53:22.925Z,82.24
2019-01-26T09:54:04.054Z,82.15
2019-01-26T09:54:47.475Z,82.72
2019-01-26T09:56:47.463Z,83.83
2019-01-26T09:57:33.690Z,83.83
2019-01-26T09:58:15.688Z,84.78
2019-01-26T09:58:57.015Z,85.06
2019-01-26T09:59:40.343Z,85.35
2019-01-26T10:00:23.242Z,85.45
2019-01-26T10:01:05.927Z,85.35
2019-01-26T10:01:50.192Z,85.16
2019-01-26T10:02:31.186Z,85.73
2019-01-26T10:03:11.018Z,85.83
2019-01-26T10:03:55.853Z,85.83
2019-01-26T10:04:37.178Z,85.73
2019-01-26T10:05:17.886Z,86.11
2019-01-26T10:06:01.833Z,86.11
2019-01-26T10:06:43.750Z,86.3
2019-01-26T10:07:26.235Z,86.49
2019-01-26T10:08:12.151Z,86.69
2019-01-26T10:08:54.509Z,86.4